createdAt,value
2023-05-06T00:00:31.388Z,6.20
2023-05-06T00:03:00.017Z,5.63
2023-05-06T00:05:29.403Z,5.77
2023-05-06T00:07:56.764Z,5.73
2023-05-06T00:10:24.247Z,5.40
2023-05-06T00:12:51.684Z,5.23
2023-05-06T00:15:19.124Z,4.80
2023-05-06T00:17:46.581Z,5.30
2023-05-06T00:20:14.678Z,5.50
2023-05-06T00:22:43.384Z,5.67
2023-05-06T00:25:11.123Z,4.87
2023-05-06T00:27:38.996Z,5.10
2023-05-06T00:30:07.092Z,5.17
2023-05-06T00:32:34.465Z,5.17
2023-05-06T00:35:01.836Z,5.87
2023-05-06T00:37:29.297Z,5.57
2023-05-06T00:39:58.097Z,5.40
2023-05-06T00:42:25.686Z,5.10
2023-05-06T00:44:53.219Z,5.37
2023-05-06T00:47:21.748Z,4.83
2023-05-06T00:49:49.201Z,4.77
2023-05-06T00:52:16.838Z,5.20
2023-05-06T00:54:44.256Z,5.30
2023-05-06T00:57:13.069Z,5.53
2023-05-06T00:59:40.532Z,4.67
2023-05-06T01:02:08.795Z,4.50
2023-05-06T01:04:37.370Z,5.53
2023-05-06T01:07:17.581Z,5.50
2023-05-06T01:09:49.727Z,5.53
2023-05-06T01:12:22.324Z,6.13
2023-05-06T01:14:56.062Z,5.53
2023-05-06T01:17:25.863Z,5.30
2023-05-06T01:19:54.139Z,4.60
2023-05-06T01:22:24.173Z,4.93
2023-05-06T01:24:53.008Z,5.10
2023-05-06T01:27:22.398Z,4.97
2023-05-06T01:29:50.044Z,4.70
2023-05-06T01:32:24.006Z,4.80
2023-05-06T01:34:56.464Z,5.33
2023-05-06T01:37:25.940Z,4.77
2023-05-06T01:39:56.338Z,4.90
2023-05-06T01:42:24.643Z,4.90
2023-05-06T01:44:52.590Z,5.57
2023-05-06T01:47:20.496Z,6.47
2023-05-06T01:49:48.200Z,5.43
2023-05-06T01:52:16.760Z,5.60
2023-05-06T01:54:45.134Z,5.57
2023-05-06T01:57:13.823Z,4.90
2023-05-06T01:59:41.212Z,5.67
2023-05-06T02:02:08.661Z,5.17
2023-05-06T02:04:36.213Z,5.40
2023-05-06T02:07:04.569Z,5.30
2023-05-06T02:09:31.950Z,5.53
2023-05-06T02:12:03.474Z,5.17
2023-05-06T02:14:32.248Z,5.13
2023-05-06T02:17:03.679Z,5.53
2023-05-06T02:19:31.222Z,4.67
2023-05-06T02:21:58.661Z,5.20
2023-05-06T02:24:26.782Z,5.73
2023-05-06T02:26:54.175Z,5.67
2023-05-06T02:29:21.591Z,5.53
2023-05-06T02:31:50.432Z,5.47
2023-05-06T02:34:18.080Z,5.97
2023-05-06T02:36:45.472Z,4.90
2023-05-06T02:39:12.863Z,5.40
2023-05-06T02:41:40.259Z,5.00
2023-05-06T02:44:07.621Z,5.20
2023-05-06T02:46:35.565Z,5.30
2023-05-06T02:49:04.318Z,5.10
2023-05-06T02:51:32.363Z,5.20
2023-05-06T02:53:59.755Z,5.33
2023-05-06T02:56:27.226Z,5.77
2023-05-06T02:58:54.817Z,5.47
2023-05-06T03:01:22.304Z,5.60
2023-05-06T03:03:49.739Z,5.33
2023-05-06T03:06:18.562Z,5.60
2023-05-06T03:08:46.909Z,5.30
2023-05-06T03:11:14.465Z,5.73
2023-05-06T03:13:41.946Z,5.27
2023-05-06T03:16:12.915Z,5.43
2023-05-06T03:18:41.124Z,5.07
2023-05-06T03:21:09.133Z,5.53
2023-05-06T03:23:40.015Z,5.10
2023-05-06T03:26:07.480Z,5.73
2023-05-06T03:28:35.205Z,4.90
2023-05-06T03:31:04.497Z,6.17
2023-05-06T03:33:34.545Z,5.07
2023-05-06T03:36:02.411Z,5.27
2023-05-06T03:38:30.163Z,5.57
2023-05-06T03:41:03.622Z,5.03
2023-05-06T03:43:31.501Z,5.23
2023-05-06T03:46:01.589Z,5.77
2023-05-06T03:48:29.473Z,5.17
2023-05-06T03:50:57.047Z,5.17
2023-05-06T03:53:24.615Z,4.60
2023-05-06T03:55:52.740Z,4.73
2023-05-06T03:58:21.571Z,3.90
2023-05-06T04:00:49.016Z,3.93
2023-05-06T04:03:16.440Z,4.30
2023-05-06T04:05:50.747Z,3.53
2023-05-06T04:08:21.647Z,3.50
2023-05-06T04:10:49.407Z,3.53
2023-05-06T04:13:32.885Z,2.93
2023-05-06T04:16:03.943Z,2.40
2023-05-06T04:18:35.939Z,2.57
2023-05-06T04:21:11.895Z,19.27
2023-05-06T04:23:41.465Z,4.47
2023-05-06T04:26:09.992Z,2.73
2023-05-06T04:28:42.071Z,2.60
2023-05-06T04:31:11.117Z,2.50
2023-05-06T04:33:43.866Z,2.80
2023-05-06T04:36:15.776Z,2.57
2023-05-06T04:38:53.560Z,2.90
2023-05-06T04:41:22.047Z,2.87
2023-05-06T04:43:50.928Z,2.50
2023-05-06T04:46:22.986Z,2.60
2023-05-06T04:48:50.873Z,2.40
2023-05-06T04:51:19.489Z,2.57
2023-05-06T04:53:46.951Z,2.43
2023-05-06T04:56:14.934Z,2.20
2023-05-06T04:58:42.742Z,2.53
2023-05-06T05:01:11.877Z,2.60
2023-05-06T05:03:39.338Z,3.20
2023-05-06T05:06:09.923Z,2.73
2023-05-06T05:08:37.352Z,2.30
2023-05-06T05:11:06.700Z,2.50
2023-05-06T05:13:35.757Z,2.60
2023-05-06T05:16:04.262Z,2.67
2023-05-06T05:18:34.750Z,2.60
2023-05-06T05:21:08.102Z,2.33
2023-05-06T05:23:36.886Z,2.33
2023-05-06T05:26:04.329Z,2.30
2023-05-06T05:28:32.100Z,2.60
2023-05-06T05:31:02.753Z,2.50
2023-05-06T05:33:31.415Z,2.77
2023-05-06T05:36:01.457Z,2.53
2023-05-06T05:38:30.183Z,2.33
2023-05-06T05:40:58.497Z,2.87
2023-05-06T05:43:26.924Z,2.43
2023-05-06T05:45:55.786Z,2.47
2023-05-06T05:48:23.256Z,2.33
2023-05-06T05:50:51.470Z,2.70
2023-05-06T05:53:20.260Z,2.90
2023-05-06T05:55:47.670Z,2.67
2023-05-06T05:58:15.435Z,2.77
2023-05-06T06:00:44.348Z,2.90
2023-05-06T06:03:15.572Z,2.87
2023-05-06T06:05:43.030Z,2.50
2023-05-06T06:08:10.623Z,2.60
2023-05-06T06:10:40.671Z,3.07
2023-05-06T06:13:14.589Z,2.73
2023-05-06T06:15:42.186Z,2.33
2023-05-06T06:18:09.797Z,2.60
2023-05-06T06:20:39.081Z,2.80
2023-05-06T06:23:06.551Z,2.70
2023-05-06T06:25:33.994Z,2.17
2023-05-06T06:28:03.939Z,2.27
2023-05-06T06:30:31.471Z,2.43
2023-05-06T06:32:59.896Z,2.17
2023-05-06T06:35:27.689Z,2.40
2023-05-06T06:37:55.120Z,2.00
2023-05-06T06:40:22.671Z,2.50
2023-05-06T06:42:50.177Z,1.90
2023-05-06T06:45:48.933Z,2.13
2023-05-06T06:48:16.444Z,2.43
2023-05-06T06:50:43.848Z,2.40
2023-05-06T06:53:11.555Z,2.23
2023-05-06T06:55:38.978Z,2.47
2023-05-06T06:58:06.411Z,2.73
2023-05-06T07:00:33.830Z,2.53
2023-05-06T07:03:02.732Z,2.40
2023-05-06T07:05:30.148Z,2.60
2023-05-06T07:07:57.517Z,2.57
2023-05-06T07:10:24.929Z,2.70
2023-05-06T07:12:52.384Z,2.20
2023-05-06T07:15:19.925Z,2.43
2023-05-06T07:17:47.320Z,2.70
2023-05-06T07:20:16.495Z,2.57
2023-05-06T07:22:45.532Z,2.90
2023-05-06T07:25:13.238Z,2.60
2023-05-06T07:27:40.813Z,2.60
2023-05-06T07:30:09.049Z,2.53
2023-05-06T07:32:36.974Z,2.57
2023-05-06T07:35:05.581Z,2.20
2023-05-06T07:37:34.311Z,2.07
2023-05-06T07:40:01.717Z,2.57
2023-05-06T07:42:29.095Z,2.53
2023-05-06T07:44:56.488Z,2.50
2023-05-06T07:47:28.052Z,2.40
2023-05-06T07:49:55.734Z,2.57
2023-05-06T07:52:23.196Z,2.80
2023-05-06T07:54:51.980Z,2.50
2023-05-06T07:57:19.366Z,2.37
2023-05-06T07:59:48.296Z,2.80
2023-05-06T08:02:16.064Z,2.33
2023-05-06T08:04:43.741Z,2.23
2023-05-06T08:07:11.303Z,2.43
2023-05-06T08:09:38.846Z,2.40
2023-05-06T08:12:07.807Z,2.50
2023-05-06T08:14:35.239Z,2.60
2023-05-06T08:17:02.641Z,2.37
2023-05-06T08:19:30.326Z,2.23
2023-05-06T08:21:57.708Z,2.07
2023-05-06T08:24:25.090Z,2.03
2023-05-06T08:26:52.444Z,2.33
2023-05-06T08:29:21.290Z,2.10
2023-05-06T08:31:48.777Z,2.10
2023-05-06T08:34:18.412Z,1.70
2023-05-06T08:36:45.849Z,2.00
2023-05-06T08:39:14.384Z,1.90
2023-05-06T08:41:42.172Z,1.97
2023-05-06T08:44:09.548Z,1.80
2023-05-06T08:46:38.246Z,1.87
2023-05-06T08:49:05.707Z,1.83
2023-05-06T08:51:33.163Z,2.10
2023-05-06T08:54:01.712Z,2.13
2023-05-06T08:56:30.831Z,2.10
2023-05-06T08:58:58.932Z,2.10
2023-05-06T09:01:26.690Z,1.93
2023-05-06T09:03:56.057Z,1.83
2023-05-06T09:06:23.922Z,1.70
2023-05-06T09:08:51.697Z,1.50
2023-05-06T09:11:23.092Z,1.60
2023-05-06T09:13:51.274Z,1.90
2023-05-06T09:16:28.519Z,1.50
2023-05-06T09:18:57.454Z,1.63
2023-05-06T09:21:31.229Z,1.77
2023-05-06T09:23:59.238Z,1.67
2023-05-06T09:26:27.504Z,1.70
2023-05-06T09:28:54.909Z,1.60
2023-05-06T09:31:22.323Z,1.60
2023-05-06T09:33:49.798Z,1.80
2023-05-06T09:36:18.774Z,1.67
2023-05-06T09:38:46.168Z,1.50
2023-05-06T09:41:13.605Z,1.50
2023-05-06T09:43:44.681Z,1.50
2023-05-06T09:46:12.289Z,1.90
2023-05-06T09:48:40.249Z,1.70
2023-05-06T09:51:08.142Z,1.70
2023-05-06T09:53:38.049Z,1.70
2023-05-06T09:56:06.261Z,1.50
2023-05-06T09:58:34.050Z,1.63
2023-05-06T10:01:02.102Z,1.27
2023-05-06T10:03:29.988Z,1.40
2023-05-06T10:05:59.132Z,1.40
2023-05-06T10:08:26.587Z,1.40
2023-05-06T10:10:55.775Z,1.60
2023-05-06T10:13:24.531Z,1.40
2023-05-06T10:15:52.818Z,1.43
2023-05-06T10:18:20.903Z,1.33
2023-05-06T10:20:48.912Z,1.50
2023-05-06T10:23:22.702Z,1.30
2023-05-06T10:25:52.590Z,1.30
2023-05-06T10:28:25.235Z,1.30
2023-05-06T10:30:59.098Z,1.20
2023-05-06T10:33:27.070Z,1.30
2023-05-06T10:35:57.769Z,1.30
2023-05-06T10:38:32.059Z,1.27
2023-05-06T10:40:59.986Z,1.00
2023-05-06T10:43:30.220Z,0.97
2023-05-06T10:46:08.940Z,1.10
2023-05-06T10:48:37.073Z,1.10
2023-05-06T10:51:21.949Z,1.20
2023-05-06T10:53:59.363Z,1.33
2023-05-06T10:56:26.939Z,1.23
2023-05-06T10:58:56.239Z,1.30
2023-05-06T11:01:24.028Z,1.10
2023-05-06T11:03:52.677Z,1.20
2023-05-06T11:06:39.496Z,1.23
2023-05-06T11:09:07.213Z,1.10
2023-05-06T11:11:50.840Z,1.40
2023-05-06T11:14:27.308Z,1.23
2023-05-06T11:16:56.523Z,1.30
2023-05-06T11:19:24.806Z,1.23
2023-05-06T11:21:53.065Z,1.00
2023-05-06T11:24:24.470Z,1.13
2023-05-06T11:26:51.997Z,1.30
2023-05-06T11:29:19.490Z,1.10
2023-05-06T11:31:48.376Z,1.13
2023-05-06T11:34:21.438Z,0.97
2023-05-06T11:36:50.020Z,1.10
2023-05-06T11:39:17.401Z,0.90
2023-05-06T11:41:44.802Z,0.83
2023-05-06T11:44:14.576Z,1.00
2023-05-06T11:46:44.466Z,1.17
2023-05-06T11:49:15.385Z,1.03
2023-05-06T11:51:42.795Z,1.20
2023-05-06T11:54:11.021Z,1.20
2023-05-06T11:56:48.642Z,1.20
2023-05-06T11:59:16.097Z,1.10
2023-05-06T12:01:44.298Z,1.00
2023-05-06T12:04:12.316Z,1.03
2023-05-06T12:06:41.711Z,0.97
2023-05-06T12:09:11.649Z,1.10
2023-05-06T12:11:39.809Z,1.17
2023-05-06T12:14:08.159Z,0.93
2023-05-06T12:16:36.022Z,1.00
2023-05-06T12:19:03.481Z,0.90
2023-05-06T12:21:31.571Z,0.97
2023-05-06T12:24:01.092Z,1.03
2023-05-06T12:26:30.070Z,1.10
2023-05-06T12:29:07.929Z,1.37
2023-05-06T12:31:35.705Z,1.13
2023-05-06T12:34:03.388Z,1.07
2023-05-06T12:36:32.291Z,1.00
2023-05-06T12:39:01.703Z,1.30
2023-05-06T12:41:37.000Z,0.70
2023-05-06T12:44:04.595Z,1.00
2023-05-06T12:46:32.072Z,1.13
2023-05-06T12:48:59.947Z,0.97
2023-05-06T12:51:27.661Z,0.90
2023-05-06T12:53:55.227Z,1.10
2023-05-06T12:56:24.117Z,0.90
2023-05-06T12:58:58.544Z,1.20
2023-05-06T13:01:26.080Z,1.30
2023-05-06T13:03:53.571Z,1.47
2023-05-06T13:06:20.965Z,1.30
2023-05-06T13:08:48.315Z,1.27
2023-05-06T13:11:15.909Z,1.30
2023-05-06T13:13:44.615Z,1.40
2023-05-06T13:16:11.987Z,1.50
2023-05-06T13:18:39.384Z,1.40
2023-05-06T13:21:06.778Z,1.20
2023-05-06T13:23:35.041Z,1.40
2023-05-06T13:26:05.828Z,1.23
2023-05-06T13:28:35.166Z,1.10
2023-05-06T13:31:04.094Z,1.13
2023-05-06T13:33:31.551Z,1.20
2023-05-06T13:35:58.931Z,1.33
2023-05-06T13:38:26.378Z,1.27
2023-05-06T13:40:54.857Z,1.27
2023-05-06T13:43:24.485Z,1.25
2023-05-06T13:45:51.950Z,1.10
2023-05-06T13:48:20.809Z,1.20
2023-05-06T13:50:48.360Z,1.20
2023-05-06T13:53:16.152Z,1.30
2023-05-06T13:55:43.681Z,1.30
2023-05-06T13:58:11.240Z,1.20
2023-05-06T14:00:39.952Z,1.10
2023-05-06T14:03:07.560Z,1.00
2023-05-06T14:05:36.401Z,1.10
2023-05-06T14:08:03.771Z,0.90
2023-05-06T14:10:31.210Z,1.30
2023-05-06T14:12:58.607Z,1.15
2023-05-06T14:15:26.187Z,1.20
2023-05-06T14:17:54.094Z,0.93
2023-05-06T14:20:21.537Z,1.00
2023-05-06T14:22:50.288Z,1.13
2023-05-06T14:25:17.702Z,1.00
2023-05-06T14:27:45.955Z,1.00
2023-05-06T14:30:13.987Z,1.00
2023-05-06T14:32:41.367Z,1.10
2023-05-06T14:35:09.660Z,1.00
2023-05-06T14:37:37.735Z,0.88
2023-05-06T14:40:07.663Z,1.30
2023-05-06T14:42:35.670Z,1.10
2023-05-06T14:45:03.471Z,1.10
2023-05-06T14:47:30.995Z,1.10
2023-05-06T14:49:58.421Z,1.30
2023-05-06T14:52:25.892Z,1.20
2023-05-06T14:54:53.319Z,1.10
2023-05-06T14:57:22.386Z,1.30
2023-05-06T14:59:50.794Z,1.20
2023-05-06T15:02:18.404Z,1.00
2023-05-06T15:04:46.124Z,1.15
2023-05-06T15:07:13.549Z,1.10
2023-05-06T15:09:43.768Z,1.10
2023-05-06T15:12:11.998Z,1.30
2023-05-06T15:14:41.011Z,1.73
2023-05-06T15:17:08.566Z,1.27
2023-05-06T15:19:35.995Z,1.40
2023-05-06T15:22:03.364Z,1.20
2023-05-06T15:24:30.721Z,1.27
2023-05-06T15:26:58.160Z,1.02
2023-05-06T15:29:26.086Z,1.17
2023-05-06T15:31:54.918Z,1.55
2023-05-06T15:34:22.335Z,1.30
2023-05-06T15:36:51.552Z,1.33
2023-05-06T15:39:19.180Z,1.10
2023-05-06T15:41:46.911Z,1.13
2023-05-06T15:44:16.320Z,1.10
2023-05-06T15:46:44.019Z,1.05
2023-05-06T15:49:45.499Z,1.25
2023-05-06T15:52:01.294Z,1.38
2023-05-06T15:54:29.138Z,1.20
2023-05-06T15:56:58.349Z,1.23
2023-05-06T15:59:26.863Z,1.13
2023-05-06T16:04:26.316Z,1.13
2023-05-06T16:06:53.798Z,1.20
2023-05-06T16:09:21.182Z,1.20
2023-05-06T16:11:48.531Z,1.38
2023-05-06T16:14:15.882Z,1.20
2023-05-06T16:16:43.378Z,1.33
2023-05-06T16:19:10.772Z,1.20
2023-05-06T16:21:39.518Z,1.20
2023-05-06T16:24:07.084Z,1.20
2023-05-06T16:26:34.500Z,1.27
2023-05-06T16:29:01.853Z,1.30
2023-05-06T16:31:29.286Z,1.40
2023-05-06T16:33:56.933Z,1.40
2023-05-06T16:36:24.619Z,1.30
2023-05-06T16:38:53.372Z,1.52
2023-05-06T16:41:20.761Z,1.30
2023-05-06T16:43:48.380Z,1.30
2023-05-06T16:46:15.768Z,1.60
2023-05-06T16:48:43.272Z,1.10
2023-05-06T16:51:12.226Z,1.40
2023-05-06T16:53:39.616Z,1.13
2023-05-06T16:56:08.710Z,1.30
2023-05-06T16:58:36.123Z,1.20
2023-05-06T17:01:04.020Z,1.30
2023-05-06T17:03:31.954Z,1.35
2023-05-06T17:05:59.404Z,1.50
2023-05-06T17:08:27.233Z,1.40
2023-05-06T17:10:54.660Z,1.52
2023-05-06T17:13:23.530Z,1.42
2023-05-06T17:15:50.932Z,1.30
2023-05-06T17:18:18.272Z,1.38
2023-05-06T17:20:55.162Z,1.17
2023-05-06T17:23:24.284Z,1.40
2023-05-06T17:25:51.735Z,1.40
2023-05-06T17:28:19.253Z,1.35
2023-05-06T17:30:48.072Z,1.40
2023-05-06T17:33:15.953Z,1.20
2023-05-06T17:35:43.352Z,1.10
2023-05-06T17:38:12.051Z,1.50
2023-05-06T17:40:47.389Z,1.88
2023-05-06T17:43:14.816Z,1.30
2023-05-06T17:45:42.437Z,1.30
2023-05-06T17:48:09.940Z,1.60
2023-05-06T17:50:37.447Z,1.33
2023-05-06T17:53:04.857Z,1.30
2023-05-06T17:55:32.247Z,1.80
2023-05-06T17:58:00.968Z,2.10
2023-05-06T18:00:28.388Z,2.10
2023-05-06T18:02:55.850Z,2.00
2023-05-06T18:05:24.580Z,1.60
2023-05-06T18:07:51.999Z,1.27
2023-05-06T18:10:19.636Z,1.30
2023-05-06T18:12:47.055Z,1.30
2023-05-06T18:15:15.844Z,1.20
2023-05-06T18:17:43.284Z,1.43
2023-05-06T18:20:11.252Z,1.20
2023-05-06T18:22:39.559Z,1.13
2023-05-06T18:25:07.816Z,1.00
2023-05-06T18:27:35.250Z,1.10
2023-05-06T18:30:02.717Z,1.00
2023-05-06T18:32:31.500Z,1.10
2023-05-06T18:34:59.162Z,1.20
2023-05-06T18:37:28.543Z,1.23
2023-05-06T18:39:55.908Z,1.27
2023-05-06T18:42:23.316Z,1.20
2023-05-06T18:44:51.152Z,1.60
2023-05-06T18:47:19.204Z,1.30
2023-05-06T18:49:48.481Z,1.00
2023-05-06T18:52:17.508Z,1.17
2023-05-06T18:54:44.915Z,1.30
2023-05-06T18:57:12.419Z,1.20
2023-05-06T18:59:39.866Z,1.23
2023-05-06T19:02:07.880Z,1.37
2023-05-06T19:04:35.682Z,1.20
2023-05-06T19:07:04.451Z,1.17
2023-05-06T19:09:32.791Z,1.40
2023-05-06T19:12:00.215Z,1.43
2023-05-06T19:14:27.852Z,1.43
2023-05-06T19:16:55.294Z,1.80
2023-05-06T19:19:22.731Z,1.60
2023-05-06T19:21:50.100Z,1.50
2023-05-06T19:24:18.862Z,1.70
2023-05-06T19:26:46.304Z,1.80
2023-05-06T19:29:14.547Z,2.30
2023-05-06T19:31:41.955Z,1.73
2023-05-06T19:34:09.721Z,2.13
2023-05-06T19:36:37.103Z,7.40
2023-05-06T19:39:04.487Z,2.30
2023-05-06T19:41:33.402Z,2.30
2023-05-06T19:44:00.784Z,2.43
2023-05-06T19:46:28.296Z,3.77
2023-05-06T19:48:55.784Z,2.50
2023-05-06T19:51:23.194Z,2.63
2023-05-06T19:53:50.690Z,2.37
2023-05-06T19:56:19.522Z,3.03
2023-05-06T19:58:48.413Z,2.83
2023-05-06T20:01:16.987Z,2.90
2023-05-06T20:03:44.533Z,4.00
2023-05-06T20:06:11.992Z,5.03
2023-05-06T20:08:39.379Z,4.70
2023-05-06T20:11:06.818Z,4.70
2023-05-06T20:13:34.337Z,4.73
2023-05-06T20:16:03.271Z,4.13
2023-05-06T20:18:31.771Z,3.70
2023-05-06T20:20:59.166Z,3.30
2023-05-06T20:23:26.786Z,3.00
2023-05-06T20:25:54.169Z,2.90
2023-05-06T20:28:21.528Z,3.07
2023-05-06T20:30:48.996Z,3.03
2023-05-06T20:33:17.785Z,3.83
2023-05-06T20:35:45.728Z,3.43
2023-05-06T20:38:16.825Z,4.03
2023-05-06T20:40:44.236Z,3.03
2023-05-06T20:43:11.627Z,3.20
2023-05-06T20:45:39.092Z,3.17
2023-05-06T20:48:06.691Z,5.40
2023-05-06T20:50:35.452Z,2.83
2023-05-06T20:53:02.866Z,4.97
2023-05-06T20:55:30.375Z,3.40
2023-05-06T20:57:57.802Z,3.97
2023-05-06T21:00:25.360Z,3.33
2023-05-06T21:02:52.887Z,3.10
2023-05-06T21:05:20.299Z,3.13
2023-05-06T21:07:49.007Z,6.80
2023-05-06T21:10:16.387Z,2.90
2023-05-06T21:12:47.729Z,3.20
2023-05-06T21:15:15.211Z,3.20
2023-05-06T21:17:42.899Z,3.20
2023-05-06T21:20:10.764Z,3.27
2023-05-06T21:22:38.148Z,3.47
2023-05-06T21:25:08.087Z,3.80
2023-05-06T21:27:35.664Z,3.00
2023-05-06T21:30:03.125Z,3.73
2023-05-06T21:32:32.860Z,4.30
2023-05-06T21:35:02.077Z,4.00
2023-05-06T21:37:29.953Z,3.37
2023-05-06T21:39:57.453Z,3.27
2023-05-06T21:42:26.178Z,4.03
2023-05-06T21:44:53.565Z,4.13
2023-05-06T21:47:20.924Z,3.73
2023-05-06T21:49:48.328Z,3.27
2023-05-06T21:52:15.772Z,3.07
2023-05-06T21:54:43.155Z,5.97
2023-05-06T21:57:12.493Z,3.17
2023-05-06T21:59:41.243Z,2.83
2023-05-06T22:02:08.691Z,2.73
2023-05-06T22:04:36.118Z,3.50
2023-05-06T22:07:03.624Z,3.00
2023-05-06T22:09:30.992Z,3.00
2023-05-06T22:11:58.692Z,2.83
2023-05-06T22:14:30.268Z,3.07
2023-05-06T22:17:02.520Z,3.10
2023-05-06T22:19:29.919Z,2.90
2023-05-06T22:21:57.813Z,3.40
2023-05-06T22:24:25.884Z,3.83
2023-05-06T22:26:53.310Z,3.00
2023-05-06T22:29:20.750Z,3.67
2023-05-06T22:31:48.196Z,2.50
2023-05-06T22:34:17.034Z,2.57
2023-05-06T22:36:44.435Z,3.10
2023-05-06T22:39:11.798Z,2.70
2023-05-06T22:41:39.205Z,3.63
2023-05-06T22:44:06.618Z,3.03
2023-05-06T22:46:33.966Z,2.67
2023-05-06T22:49:01.461Z,2.93
2023-05-06T22:51:32.039Z,4.20
2023-05-06T22:53:59.435Z,2.70
2023-05-06T22:56:26.879Z,3.40
2023-05-06T22:58:54.288Z,3.20
2023-05-06T23:01:21.758Z,2.80
2023-05-06T23:03:49.204Z,3.07
2023-05-06T23:06:18.017Z,2.77
2023-05-06T23:08:46.737Z,3.10
2023-05-06T23:11:14.146Z,2.77
2023-05-06T23:13:41.524Z,3.13
2023-05-06T23:16:10.174Z,2.90
2023-05-06T23:18:37.601Z,3.13
2023-05-06T23:21:05.143Z,3.03
2023-05-06T23:23:32.710Z,3.60
2023-05-06T23:26:01.655Z,2.90
2023-05-06T23:28:29.043Z,3.13
2023-05-06T23:30:56.531Z,2.60
2023-05-06T23:33:23.971Z,4.67
2023-05-06T23:35:51.351Z,2.70
2023-05-06T23:38:18.776Z,2.97
2023-05-06T23:40:46.165Z,3.00
2023-05-06T23:43:14.924Z,3.20
2023-05-06T23:45:42.322Z,2.90
2023-05-06T23:48:09.802Z,3.00
2023-05-06T23:50:37.424Z,2.70
2023-05-06T23:53:04.951Z,2.73
2023-05-06T23:55:32.426Z,3.37
2023-05-06T23:57:59.814Z,4.43
